createdAt,value
2023-10-29T00:00:02.426Z,10.6
2023-10-29T00:15:02.910Z,11.4
2023-10-29T00:30:02.330Z,11.1
2023-10-29T00:45:02.920Z,10.9
2023-10-29T01:00:02.189Z,11.0
2023-10-29T01:15:02.938Z,11.5
2023-10-29T01:30:02.138Z,11.2
2023-10-29T01:45:02.564Z,11.1
2023-10-29T02:00:02.952Z,11.1
2023-10-29T02:15:02.427Z,11.4
2023-10-29T02:30:02.960Z,11.5
2023-10-29T02:45:02.430Z,11.6
2023-10-29T03:00:02.961Z,11.5
2023-10-29T03:15:02.203Z,11.9
2023-10-29T03:30:02.643Z,11.6
2023-10-29T03:45:03.132Z,11.9
2023-10-29T04:00:02.500Z,12.2
2023-10-29T04:15:02.998Z,12.3
2023-10-29T04:30:02.465Z,12.3
2023-10-29T04:45:02.958Z,12.4
2023-10-29T05:00:02.333Z,12.4
2023-10-29T05:15:03.025Z,12.8
2023-10-29T05:30:03.162Z,12.4
2023-10-29T05:45:02.576Z,12.8
2023-10-29T06:00:03.086Z,12.5
2023-10-29T06:15:02.486Z,13.1
2023-10-29T06:30:03.029Z,12.2
2023-10-29T06:45:02.327Z,12.9
2023-10-29T07:00:02.978Z,12.9
2023-10-29T07:15:02.188Z,13.0
2023-10-29T07:30:02.665Z,13.3
2023-10-29T07:45:03.106Z,12.8
2023-10-29T08:00:02.505Z,13.4
2023-10-29T08:15:02.961Z,13.5
2023-10-29T08:30:03.333Z,14.3
2023-10-29T08:45:02.136Z,16.0
2023-10-29T09:00:02.234Z,16.0
2023-10-29T09:15:02.733Z,15.5
2023-10-29T09:30:02.102Z,15.7
2023-10-29T09:45:02.592Z,15.3
2023-10-29T10:00:03.032Z,15.2
2023-10-29T10:15:02.440Z,15.7
2023-10-29T10:30:03.022Z,15.5
2023-10-29T10:45:02.330Z,15.6
2023-10-29T11:00:03.054Z,15.9
2023-10-29T11:15:02.177Z,15.8
2023-10-29T11:30:03.297Z,16.5
2023-10-29T11:45:03.151Z,16.3
2023-10-29T12:00:02.505Z,17.2
2023-10-29T12:15:03.075Z,17.4
2023-10-29T12:30:02.398Z,16.8
2023-10-29T12:45:03.028Z,16.3
2023-10-29T13:00:02.286Z,16.1
2023-10-29T13:15:02.698Z,15.6
2023-10-29T13:30:03.192Z,15.5
2023-10-29T13:45:02.665Z,15.3
2023-10-29T14:00:03.048Z,15.0
2023-10-29T14:15:02.453Z,15.0
2023-10-29T14:30:03.093Z,15.0
2023-10-29T14:45:02.326Z,14.1
2023-10-29T15:00:02.973Z,13.8
2023-10-29T15:15:05.804Z,13.7
2023-10-29T15:30:02.872Z,13.6
2023-10-29T15:45:02.186Z,13.2
2023-10-29T16:00:02.548Z,12.8
2023-10-29T16:15:03.111Z,12.7
2023-10-29T16:30:02.394Z,12.6
2023-10-29T16:45:03.070Z,12.3
2023-10-29T17:00:02.330Z,11.8
2023-10-29T17:15:02.754Z,11.5
2023-10-29T17:30:02.261Z,11.2
2023-10-29T17:45:02.695Z,11.0
2023-10-29T18:00:03.097Z,10.8
2023-10-29T18:15:02.508Z,11.1
2023-10-29T18:30:05.358Z,11.3
2023-10-29T18:45:02.393Z,11.4
2023-10-29T19:00:02.805Z,11.1
2023-10-29T19:15:02.300Z,11.2
2023-10-29T19:30:02.681Z,11.4
2023-10-29T19:45:03.255Z,11.5
2023-10-29T20:00:02.611Z,11.8
2023-10-29T20:15:03.148Z,11.4
2023-10-29T20:30:02.407Z,11.5
2023-10-29T20:45:03.109Z,11.8
2023-10-29T21:00:02.359Z,11.9
2023-10-29T21:15:02.736Z,11.9
2023-10-29T21:30:03.185Z,11.7
2023-10-29T21:45:02.587Z,11.7
2023-10-29T22:00:03.154Z,11.3
2023-10-29T22:15:02.435Z,11.5
2023-10-29T22:30:03.649Z,11.2
2023-10-29T23:00:02.809Z,11.3
2023-10-29T23:15:02.200Z,11.5
2023-10-29T23:30:02.637Z,11.4
2023-10-29T23:45:03.154Z,11.7
